Terminal Aerodrome Forecast
Issued by NWS

Home | Current Version | Previous Version | Text Only | Print | Product List | Glossary On
Versions: 1 2 3 4 5 6 7 8 9 10 11 12 13 14 15 16
000
FTUS43 KMPX 301550 AAA
TAFRWF
TAF AMD
KRWF 301550Z 3016/0112 04012G18KT 6SM -RA BR SCT015 BKN025 OVC040
     FM302000 04014G26KT 3SM RA BR OVC010
      TEMPO 3020/3024 2SM +RA BR OVC008
     FM010300 03018G26KT 3SM SHRASN OVC008=

USA.gov is the U.S. government's official web portal to all federal, state and local government web resources and services.